createdAt,value
2023-02-23T00:02:58.847Z,-0.80
2023-02-23T00:06:04.487Z,-0.80
2023-02-23T00:09:23.234Z,-0.80
2023-02-23T00:12:26.952Z,-0.70
2023-02-23T00:15:30.173Z,-0.60
2023-02-23T00:18:44.947Z,-0.60
2023-02-23T00:21:48.221Z,-0.60
2023-02-23T00:24:52.883Z,-0.50
2023-02-23T00:27:56.075Z,-0.50
2023-02-23T00:31:00.024Z,-0.50
2023-02-23T00:34:04.551Z,-0.50
2023-02-23T00:37:08.645Z,-0.60
2023-02-23T00:40:16.556Z,-0.60
2023-02-23T00:43:23.554Z,-0.60
2023-02-23T00:46:28.416Z,-0.50
2023-02-23T00:49:31.664Z,-0.40
2023-02-23T00:52:34.816Z,-0.50
2023-02-23T00:55:43.649Z,-0.60
2023-02-23T00:58:46.884Z,-0.30
2023-02-23T01:01:50.053Z,-0.70
2023-02-23T01:04:56.995Z,-0.80
2023-02-23T01:08:01.451Z,-0.70
2023-02-23T01:11:09.845Z,-0.80
2023-02-23T01:14:13.085Z,-0.90
2023-02-23T01:17:17.913Z,-0.90
2023-02-23T01:20:21.263Z,-0.80
2023-02-23T01:23:24.430Z,-0.70
2023-02-23T01:26:31.589Z,-0.60
2023-02-23T01:29:34.966Z,-0.60
2023-02-23T01:32:39.230Z,-0.50
2023-02-23T01:35:43.614Z,-0.50
2023-02-23T01:38:46.815Z,-0.40
2023-02-23T01:41:54.166Z,-0.40
2023-02-23T01:45:24.686Z,-0.50
2023-02-23T01:48:31.813Z,-0.40
2023-02-23T01:51:41.116Z,-0.40
2023-02-23T01:54:50.360Z,-0.30
2023-02-23T01:58:02.419Z,-0.30
2023-02-23T02:01:06.984Z,-0.30
2023-02-23T02:04:16.366Z,-0.50
2023-02-23T02:07:22.732Z,-0.50
2023-02-23T02:10:46.858Z,-0.60
2023-02-23T02:13:54.051Z,-0.70
2023-02-23T02:17:23.483Z,-0.70
2023-02-23T02:20:53.208Z,-0.70
2023-02-23T02:24:38.766Z,-0.70
2023-02-23T02:28:08.828Z,-0.70
2023-02-23T02:31:44.841Z,-0.70
2023-02-23T02:35:33.645Z,-0.70
2023-02-23T02:38:53.587Z,-0.70
2023-02-23T02:42:06.827Z,-0.50
2023-02-23T02:45:17.966Z,-0.70
2023-02-23T02:48:26.647Z,-0.70
2023-02-23T02:51:36.673Z,-0.70
2023-02-23T02:54:47.748Z,-0.70
2023-02-23T02:57:53.124Z,-0.60
2023-02-23T03:01:38.754Z,-0.70
2023-02-23T03:05:00.532Z,-0.70
2023-02-23T03:08:34.311Z,-0.80
2023-02-23T03:11:59.266Z,-0.90
2023-02-23T03:15:30.675Z,-1.00
2023-02-23T03:19:08.828Z,-1.00
2023-02-23T03:22:40.219Z,-1.00
2023-02-23T03:26:07.788Z,-1.20
2023-02-23T03:29:35.696Z,-1.20
2023-02-23T03:33:11.653Z,-1.20
2023-02-23T03:36:42.838Z,-1.40
2023-02-23T03:40:15.014Z,-1.40
2023-02-23T03:43:41.638Z,-1.50
2023-02-23T03:47:07.380Z,-1.50
2023-02-23T03:50:34.321Z,-1.50
2023-02-23T03:54:02.136Z,-1.50
2023-02-23T03:57:27.008Z,-1.40
2023-02-23T04:00:51.086Z,-1.50
2023-02-23T04:04:16.513Z,-1.60
2023-02-23T04:07:38.970Z,-1.70
2023-02-23T04:11:07.458Z,-1.70
2023-02-23T04:14:19.127Z,-1.60
2023-02-23T04:17:30.368Z,-1.70
2023-02-23T04:20:35.283Z,-1.70
2023-02-23T04:23:40.726Z,-1.70
2023-02-23T04:26:44.054Z,-1.70
2023-02-23T04:29:47.238Z,-1.80
2023-02-23T04:32:50.418Z,-1.90
2023-02-23T04:35:55.461Z,-1.80
2023-02-23T04:38:58.759Z,-1.80
2023-02-23T04:42:02.236Z,-1.90
2023-02-23T04:45:05.831Z,-2.00
2023-02-23T04:48:09.578Z,-2.00
2023-02-23T04:51:14.085Z,-2.10
2023-02-23T04:54:17.468Z,-2.00
2023-02-23T04:57:20.670Z,-1.90
2023-02-23T05:00:24.007Z,-1.90
2023-02-23T05:03:27.174Z,-1.80
2023-02-23T05:06:32.073Z,-1.80
2023-02-23T05:09:36.101Z,-1.80
2023-02-23T05:12:39.413Z,-1.50
2023-02-23T05:15:42.907Z,-0.70
2023-02-23T05:18:46.134Z,-1.30
2023-02-23T05:21:50.776Z,-0.50
2023-02-23T05:24:56.387Z,-1.20
2023-02-23T05:28:00.924Z,-1.20
2023-02-23T05:31:04.744Z,-1.20
2023-02-23T05:34:08.222Z,-1.10
2023-02-23T05:37:12.829Z,-1.10
2023-02-23T05:40:16.489Z,-1.10
2023-02-23T05:43:19.826Z,-1.10
2023-02-23T05:46:24.968Z,-0.40
2023-02-23T05:49:28.278Z,-0.90
2023-02-23T05:52:33.014Z,-0.90
2023-02-23T05:55:37.527Z,-0.90
2023-02-23T05:58:41.062Z,-0.80
2023-02-23T06:01:44.484Z,-0.70
2023-02-23T06:04:47.927Z,-0.10
2023-02-23T06:07:53.853Z,-0.60
2023-02-23T06:10:57.224Z,-0.60
2023-02-23T06:14:00.655Z,-0.50
2023-02-23T06:17:04.136Z,-0.10
2023-02-23T06:20:08.180Z,-0.50
2023-02-23T06:23:12.931Z,-0.50
2023-02-23T06:26:16.113Z,-0.40
2023-02-23T06:29:19.565Z,-0.40
2023-02-23T06:32:22.856Z,-0.30
2023-02-23T06:35:27.953Z,0.10
2023-02-23T06:38:33.026Z,-0.20
2023-02-23T06:41:36.228Z,-0.20
2023-02-23T06:44:40.174Z,-0.20
2023-02-23T06:47:43.535Z,-0.10
2023-02-23T06:50:46.671Z,0.00
2023-02-23T06:53:52.478Z,0.20
2023-02-23T06:56:56.670Z,0.00
2023-02-23T07:00:01.652Z,-0.10
2023-02-23T07:03:05.034Z,0.00
2023-02-23T07:06:08.192Z,0.00
2023-02-23T07:09:12.875Z,0.00
2023-02-23T07:12:16.089Z,0.10
2023-02-23T07:15:20.285Z,0.20
2023-02-23T07:18:23.484Z,0.30
2023-02-23T07:21:26.681Z,0.30
2023-02-23T07:24:31.251Z,0.40
2023-02-23T07:27:34.626Z,0.80
2023-02-23T07:30:37.800Z,0.50
2023-02-23T07:33:41.126Z,0.60
2023-02-23T07:36:44.390Z,0.60
2023-02-23T07:39:49.088Z,0.60
2023-02-23T07:42:52.228Z,0.70
2023-02-23T07:46:00.059Z,0.70
2023-02-23T07:49:04.464Z,0.80
2023-02-23T07:52:07.976Z,0.80
2023-02-23T07:55:13.586Z,0.70
2023-02-23T07:58:16.793Z,0.70
2023-02-23T08:01:20.210Z,0.60
2023-02-23T08:04:23.655Z,0.70
2023-02-23T08:07:27.101Z,0.70
2023-02-23T08:10:31.871Z,0.80
2023-02-23T08:13:36.121Z,0.90
2023-02-23T08:16:39.374Z,1.10
2023-02-23T08:19:42.591Z,1.30
2023-02-23T08:22:49.733Z,1.40
2023-02-23T08:25:55.231Z,1.60
2023-02-23T08:28:58.403Z,1.60
2023-02-23T08:32:03.779Z,1.70
2023-02-23T08:35:08.026Z,1.60
2023-02-23T08:38:11.214Z,1.60
2023-02-23T08:41:16.126Z,1.60
2023-02-23T08:44:19.337Z,1.70
2023-02-23T08:47:23.557Z,1.70
2023-02-23T08:50:27.548Z,1.80
2023-02-23T08:53:30.993Z,1.80
2023-02-23T08:56:35.560Z,1.90
2023-02-23T08:59:41.081Z,2.00
2023-02-23T09:02:45.362Z,2.00
2023-02-23T09:05:48.682Z,2.10
2023-02-23T09:08:52.207Z,2.20
2023-02-23T09:11:59.010Z,2.30
2023-02-23T09:15:02.381Z,2.30
2023-02-23T09:18:06.051Z,2.30
2023-02-23T09:21:18.741Z,2.50
2023-02-23T09:24:22.757Z,2.60
2023-02-23T09:27:27.750Z,2.80
2023-02-23T09:30:30.972Z,2.80
2023-02-23T09:33:34.330Z,2.90
2023-02-23T09:36:37.852Z,3.00
2023-02-23T09:39:41.057Z,3.10
2023-02-23T09:42:55.013Z,3.10
2023-02-23T09:46:04.387Z,3.20
2023-02-23T09:49:15.083Z,3.20
2023-02-23T09:52:22.266Z,3.30
2023-02-23T09:55:26.785Z,3.40
2023-02-23T09:58:34.473Z,3.60
2023-02-23T10:01:59.731Z,3.70
2023-02-23T10:05:06.541Z,4.00
2023-02-23T10:08:20.266Z,4.00
2023-02-23T10:11:30.599Z,4.00
2023-02-23T10:14:57.372Z,4.00
2023-02-23T10:18:07.285Z,4.10
2023-02-23T10:21:17.276Z,4.40
2023-02-23T10:24:26.068Z,4.60
2023-02-23T10:27:38.328Z,4.60
2023-02-23T10:30:43.269Z,4.70
2023-02-23T10:33:46.742Z,4.80
2023-02-23T10:36:53.723Z,5.00
2023-02-23T10:39:56.976Z,4.90
2023-02-23T10:43:02.643Z,4.90
2023-02-23T10:46:08.885Z,4.80
2023-02-23T10:49:19.188Z,5.20
2023-02-23T10:52:28.541Z,5.40
2023-02-23T10:55:33.530Z,5.70
2023-02-23T10:58:43.691Z,5.60
2023-02-23T11:02:01.382Z,6.00
2023-02-23T11:05:07.193Z,6.10
2023-02-23T11:08:27.231Z,5.90
2023-02-23T11:11:30.730Z,6.10
2023-02-23T11:14:35.255Z,6.20
2023-02-23T11:17:40.043Z,6.30
2023-02-23T11:20:44.329Z,6.40
2023-02-23T11:23:50.643Z,6.70
2023-02-23T11:26:57.980Z,7.30
2023-02-23T11:30:07.243Z,7.40
2023-02-23T11:33:19.897Z,7.20
2023-02-23T11:36:30.293Z,7.50
2023-02-23T11:39:33.611Z,7.50
2023-02-23T11:42:36.893Z,7.40
2023-02-23T11:45:47.879Z,7.70
2023-02-23T11:48:56.068Z,7.90
2023-02-23T11:51:59.487Z,7.70
2023-02-23T11:55:07.108Z,7.90
2023-02-23T11:58:24.253Z,7.60
2023-02-23T12:01:44.587Z,7.80
2023-02-23T12:04:50.681Z,7.90
2023-02-23T12:08:01.184Z,8.00
2023-02-23T12:11:07.357Z,7.60
2023-02-23T12:14:17.399Z,7.70
2023-02-23T12:17:26.571Z,7.50
2023-02-23T12:20:38.688Z,7.20
2023-02-23T12:23:44.352Z,7.50
2023-02-23T12:26:51.711Z,7.00
2023-02-23T12:30:09.244Z,6.70
2023-02-23T12:33:17.009Z,6.40
2023-02-23T12:36:29.951Z,6.60
2023-02-23T12:39:36.933Z,6.70
2023-02-23T12:42:46.990Z,6.70
2023-02-23T12:45:55.093Z,6.50
2023-02-23T12:49:05.288Z,6.20
2023-02-23T12:52:14.716Z,6.10
2023-02-23T12:55:30.447Z,6.40
2023-02-23T12:58:42.062Z,6.70
2023-02-23T13:01:49.574Z,7.00
2023-02-23T13:05:13.133Z,6.50
2023-02-23T13:08:27.912Z,6.70
2023-02-23T13:11:55.715Z,6.40
2023-02-23T13:15:10.435Z,6.80
2023-02-23T13:18:20.285Z,6.80
2023-02-23T13:21:30.389Z,7.10
2023-02-23T13:24:39.340Z,7.10
2023-02-23T13:27:54.156Z,6.70
2023-02-23T13:30:57.874Z,6.70
2023-02-23T13:34:03.358Z,7.00
2023-02-23T13:37:09.384Z,7.20
2023-02-23T13:40:30.518Z,6.90
2023-02-23T13:43:38.802Z,7.10
2023-02-23T13:46:51.674Z,7.10
2023-02-23T13:50:01.328Z,7.20
2023-02-23T13:53:08.678Z,7.60
2023-02-23T13:56:19.040Z,7.10
2023-02-23T13:59:23.025Z,6.60
2023-02-23T14:02:38.733Z,7.10
2023-02-23T14:05:44.885Z,7.50
2023-02-23T14:08:54.350Z,7.50
2023-02-23T14:12:19.124Z,7.80
2023-02-23T14:15:45.251Z,7.90
2023-02-23T14:18:57.925Z,7.70
2023-02-23T14:22:04.276Z,7.20
2023-02-23T14:25:45.209Z,6.00
2023-02-23T14:29:10.999Z,6.00
2023-02-23T14:32:32.423Z,5.60
2023-02-23T14:35:44.564Z,5.50
2023-02-23T14:38:48.505Z,5.20
2023-02-23T14:41:54.654Z,5.10
2023-02-23T14:45:05.906Z,5.00
2023-02-23T14:48:15.830Z,4.90
2023-02-23T14:51:24.605Z,4.90
2023-02-23T14:54:32.511Z,4.70
2023-02-23T14:57:38.348Z,4.70
2023-02-23T15:00:44.960Z,4.80
2023-02-23T15:04:08.309Z,4.70
2023-02-23T15:07:18.550Z,4.70
2023-02-23T15:10:26.917Z,4.50
2023-02-23T15:16:40.629Z,4.40
2023-02-23T15:19:46.169Z,4.30
2023-02-23T15:22:53.742Z,4.20
2023-02-23T15:25:57.075Z,4.10
2023-02-23T15:29:07.032Z,4.00
2023-02-23T15:32:20.732Z,4.00
2023-02-23T15:35:24.158Z,3.90
2023-02-23T15:38:45.732Z,3.70
2023-02-23T15:41:50.662Z,3.60
2023-02-23T15:45:00.377Z,3.50
2023-02-23T15:48:08.998Z,3.50
2023-02-23T15:51:26.057Z,3.30
2023-02-23T15:54:33.499Z,3.20
2023-02-23T15:57:48.216Z,3.10
2023-02-23T16:00:56.142Z,3.10
2023-02-23T16:04:07.002Z,2.90
2023-02-23T16:07:17.129Z,2.80
2023-02-23T16:10:25.100Z,2.70
2023-02-23T16:13:29.012Z,2.60
2023-02-23T16:16:35.947Z,2.50
2023-02-23T16:19:41.955Z,2.50
2023-02-23T16:22:47.076Z,2.40
2023-02-23T16:25:55.694Z,2.30
2023-02-23T16:29:02.149Z,2.30
2023-02-23T16:32:17.445Z,2.30
2023-02-23T16:35:22.370Z,2.30
2023-02-23T16:38:27.618Z,2.10
2023-02-23T16:41:32.453Z,2.10
2023-02-23T16:44:43.337Z,2.10
2023-02-23T16:47:48.899Z,2.10
2023-02-23T16:50:54.624Z,2.00
2023-02-23T16:53:57.952Z,2.10
2023-02-23T16:57:01.274Z,2.00
2023-02-23T17:00:14.504Z,2.00
2023-02-23T17:03:22.253Z,2.00
2023-02-23T17:06:27.089Z,1.90
2023-02-23T17:09:30.860Z,1.80
2023-02-23T17:12:34.318Z,1.80
2023-02-23T17:15:48.036Z,1.70
2023-02-23T17:18:51.426Z,1.70
2023-02-23T17:21:56.196Z,1.70
2023-02-23T17:24:59.633Z,1.60
2023-02-23T17:28:04.031Z,1.60
2023-02-23T17:31:08.314Z,1.50
2023-02-23T17:34:11.986Z,1.60
2023-02-23T17:37:16.590Z,1.60
2023-02-23T17:40:28.750Z,1.50
2023-02-23T17:43:32.237Z,1.50
2023-02-23T17:46:36.145Z,1.50
2023-02-23T17:49:39.898Z,1.50
2023-02-23T17:52:44.612Z,1.50
2023-02-23T17:55:48.474Z,1.50
2023-02-23T17:58:52.069Z,1.40
2023-02-23T18:01:55.908Z,1.50
2023-02-23T18:04:59.773Z,1.50
2023-02-23T18:08:04.573Z,1.50
2023-02-23T18:11:08.331Z,1.60
2023-02-23T18:14:14.167Z,1.60
2023-02-23T18:17:18.240Z,1.70
2023-02-23T18:20:21.851Z,1.80
2023-02-23T18:23:28.979Z,1.80
2023-02-23T18:26:32.399Z,2.00
2023-02-23T18:29:37.168Z,2.00
2023-02-23T18:32:40.491Z,2.20
2023-02-23T18:35:45.650Z,2.20
2023-02-23T18:38:51.223Z,2.30
2023-02-23T18:41:54.494Z,2.20
2023-02-23T18:44:57.879Z,2.20
2023-02-23T18:48:01.514Z,2.20
2023-02-23T18:51:07.022Z,2.30
2023-02-23T18:54:18.790Z,2.40
2023-02-23T18:57:26.761Z,2.50
2023-02-23T19:00:42.645Z,2.60
2023-02-23T19:03:46.132Z,2.70
2023-02-23T19:06:49.378Z,2.80
2023-02-23T19:09:54.225Z,2.80
2023-02-23T19:12:57.890Z,2.90
2023-02-23T19:16:04.773Z,2.90
2023-02-23T19:19:09.132Z,2.90
2023-02-23T19:22:12.657Z,2.90
2023-02-23T19:25:17.431Z,2.90
2023-02-23T19:28:22.241Z,3.00
2023-02-23T19:31:27.381Z,3.00
2023-02-23T19:34:31.637Z,3.00
2023-02-23T19:37:36.399Z,3.00
2023-02-23T19:40:42.703Z,3.00
2023-02-23T19:43:46.962Z,3.00
2023-02-23T19:46:50.369Z,3.00
2023-02-23T19:49:55.026Z,2.90
2023-02-23T19:52:58.296Z,2.80
2023-02-23T19:56:04.782Z,2.80
2023-02-23T19:59:08.126Z,2.70
2023-02-23T20:02:14.132Z,2.80
2023-02-23T20:05:18.218Z,2.70
2023-02-23T20:08:21.642Z,2.70
2023-02-23T20:11:26.514Z,2.70
2023-02-23T20:14:32.707Z,2.80
2023-02-23T20:17:45.172Z,2.90
2023-02-23T20:20:49.016Z,2.90
2023-02-23T20:23:52.875Z,3.00
2023-02-23T20:27:00.154Z,3.00
2023-02-23T20:30:04.612Z,3.10
2023-02-23T20:33:11.783Z,3.10
2023-02-23T20:36:17.513Z,3.10
2023-02-23T20:39:23.395Z,3.20
2023-02-23T20:42:29.322Z,3.20
2023-02-23T20:45:33.201Z,3.20
2023-02-23T20:48:37.184Z,3.30
2023-02-23T20:51:43.041Z,3.20
2023-02-23T20:54:46.777Z,3.30
2023-02-23T20:57:53.170Z,3.20
2023-02-23T21:00:58.377Z,3.30
2023-02-23T21:04:02.589Z,3.30
2023-02-23T21:07:06.961Z,3.30
2023-02-23T21:10:14.156Z,3.40
2023-02-23T21:13:23.259Z,3.40
2023-02-23T21:16:27.790Z,3.40
2023-02-23T21:19:31.326Z,3.50
2023-02-23T21:22:34.734Z,3.40
2023-02-23T21:25:39.967Z,3.50
2023-02-23T21:28:46.528Z,3.50
2023-02-23T21:31:49.931Z,3.50
2023-02-23T21:34:56.981Z,3.50
2023-02-23T21:38:00.438Z,3.50
2023-02-23T21:41:05.029Z,3.50
2023-02-23T21:44:10.181Z,3.50
2023-02-23T21:47:14.704Z,3.50
2023-02-23T21:50:20.126Z,3.50
2023-02-23T21:53:23.469Z,3.50
2023-02-23T21:56:27.006Z,3.50
2023-02-23T21:59:32.468Z,3.50
2023-02-23T22:02:41.038Z,3.50
2023-02-23T22:05:44.599Z,3.50
2023-02-23T22:08:50.255Z,3.60
2023-02-23T22:11:53.552Z,3.50
2023-02-23T22:14:59.111Z,3.60
2023-02-23T22:18:02.635Z,3.60
2023-02-23T22:21:06.403Z,3.60
2023-02-23T22:24:11.631Z,3.60
2023-02-23T22:27:15.947Z,3.60
2023-02-23T22:30:23.043Z,3.60
2023-02-23T22:33:26.522Z,3.60
2023-02-23T22:36:30.294Z,3.60
2023-02-23T22:39:34.340Z,3.60
2023-02-23T22:42:37.685Z,3.70
2023-02-23T22:45:43.238Z,3.70
2023-02-23T22:48:46.873Z,3.70
2023-02-23T22:51:50.463Z,3.70
2023-02-23T22:54:54.134Z,3.70
2023-02-23T22:57:57.590Z,3.80
2023-02-23T23:01:05.740Z,3.70
2023-02-23T23:04:11.143Z,3.80
2023-02-23T23:07:14.776Z,3.80
2023-02-23T23:10:18.731Z,3.80
2023-02-23T23:13:23.108Z,3.90
2023-02-23T23:16:32.469Z,3.90
2023-02-23T23:19:39.050Z,4.00
2023-02-23T23:22:42.845Z,4.00
2023-02-23T23:25:47.852Z,4.00
2023-02-23T23:28:52.644Z,4.10
2023-02-23T23:31:58.183Z,4.10
2023-02-23T23:35:01.607Z,4.20
2023-02-23T23:38:06.434Z,4.30
2023-02-23T23:41:13.789Z,4.30
2023-02-23T23:44:22.019Z,4.30
2023-02-23T23:47:28.061Z,4.30
2023-02-23T23:50:31.313Z,4.40
2023-02-23T23:53:35.073Z,4.40
2023-02-23T23:56:38.519Z,4.40
2023-02-23T23:59:46.121Z,4.40
